Time;durP1;ratioP1;P1;durP2;ratioP2;P2;SDS_P1;SDS_P2;PMS_P1;PMS_P2;Temp;Humidity;BMP_temperature;BMP_pressure;BME280_temperature;BME280_humidity;BME280_pressure;Samples;Min_cycle;Max_cycle;Signal;HPM_P1;HPM_P2
2023/04/25 00:02:22;;;;;;;6.40;4.55;;;;;;;;;;4428108;32;317332;-79
2023/04/25 00:04:49;;;;;;;6.70;5.15;;;;;;;;;;4414166;32;317309;-79
2023/04/25 00:07:16;;;;;;;4.22;3.80;;;;;;;;;;4412199;32;317055;-79
2023/04/25 00:09:45;;;;;;;10.38;5.82;;;;;;;;;;4401322;32;317212;-78
2023/04/25 00:12:12;;;;;;;7.53;4.43;;;;;;;;;;4397518;32;318324;-81
2023/04/25 00:14:39;;;;;;;9.77;4.97;;;;;;;;;;4390543;32;317757;-79
2023/04/25 00:17:05;;;;;;;4.60;3.97;;;;;;;;;;4412125;32;316978;-79
2023/04/25 00:19:34;;;;;;;8.88;3.92;;;;;;;;;;4386879;32;317825;-79
2023/04/25 00:22:01;;;;;;;4.82;3.55;;;;;;;;;;4404917;32;327198;-81
2023/04/25 00:24:28;;;;;;;4.60;3.20;;;;;;;;;;4410798;32;347947;-81
2023/04/25 00:26:56;;;;;;;4.82;3.42;;;;;;;;;;4399957;32;416549;-81
2023/04/25 00:29:23;;;;;;;4.43;3.73;;;;;;;;;;4412699;32;317411;-81
2023/04/25 00:31:50;;;;;;;4.87;3.92;;;;;;;;;;4402083;32;316562;-81
2023/04/25 00:34:16;;;;;;;5.75;3.58;;;;;;;;;;4412984;32;317291;-80
2023/04/25 00:36:43;;;;;;;4.90;3.30;;;;;;;;;;4401741;32;317796;-81
2023/04/25 00:39:10;;;;;;;9.23;4.20;;;;;;;;;;4412792;32;317523;-81
2023/04/25 00:41:37;;;;;;;6.87;3.35;;;;;;;;;;4402490;32;317715;-81
2023/04/25 00:44:07;;;;;;;4.57;4.18;;;;;;;;;;4412731;32;317805;-81
2023/04/25 00:46:35;;;;;;;7.15;3.97;;;;;;;;;;4401087;32;316883;-79
2023/04/25 00:49:02;;;;;;;11.35;6.07;;;;;;;;;;4412635;32;317273;-81
2023/04/25 00:51:29;;;;;;;15.52;7.03;;;;;;;;;;4412957;32;318364;-81
2023/04/25 00:53:56;;;;;;;10.18;6.37;;;;;;;;;;4405128;32;417016;-79
2023/04/25 00:56:25;;;;;;;9.52;5.95;;;;;;;;;;4418135;32;318349;-81
2023/04/25 00:58:56;;;;;;;9.52;5.35;;;;;;;;;;4409674;32;338160;-80
2023/04/25 01:01:24;;;;;;;9.75;5.97;;;;;;;;;;4412146;32;316676;-81
2023/04/25 01:03:52;;;;;;;12.37;5.57;;;;;;;;;;4400882;32;336099;-79
2023/04/25 01:06:19;;;;;;;12.63;6.93;;;;;;;;;;4412216;32;318444;-83
2023/04/25 01:08:45;;;;;;;13.77;6.97;;;;;;;;;;4417056;32;318149;-80
2023/04/25 01:11:12;;;;;;;12.70;7.20;;;;;;;;;;4414963;32;317624;-82
2023/04/25 01:13:39;;;;;;;16.85;8.65;;;;;;;;;;4400562;32;344259;-80
2023/04/25 01:16:06;;;;;;;13.13;7.15;;;;;;;;;;4412697;32;318678;-80
2023/04/25 01:18:35;;;;;;;6.40;3.40;;;;;;;;;;4416259;32;361438;-83
2023/04/25 01:21:10;;;;;;;3.03;2.40;;;;;;;;;;4418092;32;316572;-79
2023/04/25 01:23:38;;;;;;;5.13;2.43;;;;;;;;;;4417349;32;316762;-80
2023/04/25 01:26:05;;;;;;;2.87;2.25;;;;;;;;;;4417253;32;316677;-82
2023/04/25 01:28:32;;;;;;;3.40;2.17;;;;;;;;;;4401311;32;317219;-81
2023/04/25 01:30:59;;;;;;;5.35;2.00;;;;;;;;;;4412615;32;316800;-81
2023/04/25 01:33:26;;;;;;;2.30;2.10;;;;;;;;;;4413641;32;316681;-81
2023/04/25 01:35:53;;;;;;;4.25;2.37;;;;;;;;;;4404444;32;317139;-81
2023/04/25 01:38:21;;;;;;;3.35;2.05;;;;;;;;;;4429458;32;317624;-81
2023/04/25 01:40:51;;;;;;;2.70;1.65;;;;;;;;;;4411908;32;317241;-81
2023/04/25 01:43:18;;;;;;;4.22;2.12;;;;;;;;;;4414785;32;316736;-80
2023/04/25 01:45:45;;;;;;;4.23;1.70;;;;;;;;;;4412344;32;317439;-80
2023/04/25 01:48:13;;;;;;;5.03;1.98;;;;;;;;;;4417016;32;317147;-81
2023/04/25 01:50:41;;;;;;;1.87;1.50;;;;;;;;;;4403600;32;320485;-81
2023/04/25 01:53:10;;;;;;;6.47;2.83;;;;;;;;;;4420042;32;317447;-80
2023/04/25 01:55:38;;;;;;;5.83;3.50;;;;;;;;;;4403124;32;335230;-82
2023/04/25 01:58:08;;;;;;;7.30;2.93;;;;;;;;;;4413511;32;316719;-81
2023/04/25 02:00:37;;;;;;;3.50;2.87;;;;;;;;;;4403111;32;317151;-81
2023/04/25 02:03:04;;;;;;;6.43;3.80;;;;;;;;;;4413560;32;316832;-79
2023/04/25 02:05:35;;;;;;;9.00;4.70;;;;;;;;;;4403608;32;317707;-80
2023/04/25 02:08:02;;;;;;;6.30;4.30;;;;;;;;;;4424775;32;317332;-81
2023/04/25 02:10:29;;;;;;;9.27;4.60;;;;;;;;;;4422913;32;317454;-81
2023/04/25 02:12:58;;;;;;;13.37;6.23;;;;;;;;;;4401606;32;417890;-80
2023/04/25 02:15:24;;;;;;;8.10;4.80;;;;;;;;;;4412664;32;317897;-80
2023/04/25 02:17:52;;;;;;;8.60;5.57;;;;;;;;;;4403365;32;317290;-79
2023/04/25 02:20:19;;;;;;;9.10;5.68;;;;;;;;;;4414097;32;317171;-80
2023/04/25 02:22:46;;;;;;;8.48;6.57;;;;;;;;;;4410103;32;348730;-79
2023/04/25 02:25:13;;;;;;;10.35;8.77;;;;;;;;;;4424664;32;316867;-81
2023/04/25 02:27:40;;;;;;;13.27;11.27;;;;;;;;;;4403145;32;318349;-81
2023/04/25 02:30:09;;;;;;;17.52;11.65;;;;;;;;;;4413722;32;319472;-81
2023/04/25 02:32:36;;;;;;;13.57;10.40;;;;;;;;;;4403377;32;337758;-80
2023/04/25 02:35:04;;;;;;;14.65;11.52;;;;;;;;;;4414022;32;318797;-82
2023/04/25 02:37:31;;;;;;;10.25;9.27;;;;;;;;;;4404188;32;319298;-79
2023/04/25 02:39:58;;;;;;;17.95;12.25;;;;;;;;;;4413771;32;317883;-79
2023/04/25 02:42:24;;;;;;;15.10;11.23;;;;;;;;;;4412465;32;319530;-81
2023/04/25 02:44:51;;;;;;;10.57;9.48;;;;;;;;;;4402166;32;318917;-82
2023/04/25 02:47:19;;;;;;;12.65;8.60;;;;;;;;;;4413616;32;317750;-81
2023/04/25 02:49:46;;;;;;;12.57;10.77;;;;;;;;;;4403831;32;318247;-82
2023/04/25 02:52:13;;;;;;;11.37;10.27;;;;;;;;;;4415066;32;319351;-81
2023/04/25 02:54:40;;;;;;;11.23;9.87;;;;;;;;;;4417778;32;319215;-81
2023/04/25 02:57:07;;;;;;;10.90;9.60;;;;;;;;;;4415924;32;318202;-83
2023/04/25 02:59:34;;;;;;;13.15;10.98;;;;;;;;;;4406872;32;348681;-79
2023/04/25 03:02:01;;;;;;;12.00;10.67;;;;;;;;;;4416030;32;319023;-80
2023/04/25 03:04:29;;;;;;;14.27;10.83;;;;;;;;;;4430221;32;319322;-83
2023/04/25 03:06:56;;;;;;;10.50;9.37;;;;;;;;;;4415146;32;420320;-80
2023/04/25 03:09:23;;;;;;;11.30;10.13;;;;;;;;;;4420371;32;318045;-79
2023/04/25 03:11:49;;;;;;;11.47;10.37;;;;;;;;;;4419094;32;319092;-80
2023/04/25 03:14:16;;;;;;;13.63;11.03;;;;;;;;;;4424954;32;350560;-84
2023/04/25 03:16:43;;;;;;;14.80;11.83;;;;;;;;;;4417809;32;318266;-83
2023/04/25 03:19:10;;;;;;;12.33;11.10;;;;;;;;;;4414851;32;318441;-82
2023/04/25 03:21:38;;;;;;;12.37;11.00;;;;;;;;;;4387138;32;318696;-81
2023/04/25 03:24:06;;;;;;;10.70;9.63;;;;;;;;;;4407893;32;319689;-80
2023/04/25 03:26:33;;;;;;;12.50;11.20;;;;;;;;;;4403313;32;317706;-82
2023/04/25 03:29:00;;;;;;;13.93;11.17;;;;;;;;;;4413015;32;318478;-80
2023/04/25 03:31:27;;;;;;;13.13;11.43;;;;;;;;;;4412731;32;319639;-78
2023/04/25 03:33:53;;;;;;;12.02;10.82;;;;;;;;;;4414879;32;319519;-81
2023/04/25 03:36:20;;;;;;;11.75;10.48;;;;;;;;;;4416727;32;318653;-79
2023/04/25 03:38:48;;;;;;;11.82;10.63;;;;;;;;;;4415009;32;318697;-81
2023/04/25 03:41:15;;;;;;;14.02;12.60;;;;;;;;;;4417052;32;319553;-81
2023/04/25 03:43:42;;;;;;;18.30;16.07;;;;;;;;;;4393067;32;319107;-79
2023/04/25 03:46:08;;;;;;;51.63;30.93;;;;;;;;;;4421857;32;318813;-79
2023/04/25 03:48:35;;;;;;;67.35;38.30;;;;;;;;;;4406194;32;319137;-81
2023/04/25 03:51:02;;;;;;;54.83;30.23;;;;;;;;;;4402653;32;319665;-83
2023/04/25 03:53:29;;;;;;;24.35;16.58;;;;;;;;;;4412269;32;319442;-81
2023/04/25 03:55:57;;;;;;;20.47;13.67;;;;;;;;;;4399647;32;420151;-81
2023/04/25 03:58:24;;;;;;;12.20;9.90;;;;;;;;;;4412929;32;319256;-80
2023/04/25 04:00:51;;;;;;;12.13;9.65;;;;;;;;;;4401471;32;318148;-80
2023/04/25 04:03:17;;;;;;;15.27;8.00;;;;;;;;;;4412130;32;318026;-81
2023/04/25 04:05:44;;;;;;;10.87;8.53;;;;;;;;;;4403185;32;318249;-80
2023/04/25 04:08:11;;;;;;;13.40;9.43;;;;;;;;;;4411323;32;332937;-80
2023/04/25 04:10:38;;;;;;;12.20;9.20;;;;;;;;;;4403611;32;318093;-82
2023/04/25 04:13:06;;;;;;;16.43;9.83;;;;;;;;;;4418119;32;317584;-81
2023/04/25 04:15:33;;;;;;;12.30;10.37;;;;;;;;;;4393610;32;317683;-79
2023/04/25 04:18:02;;;;;;;25.20;12.60;;;;;;;;;;4412660;32;318438;-79
2023/04/25 04:20:30;;;;;;;16.37;12.93;;;;;;;;;;4406381;32;319780;-80
2023/04/25 04:22:56;;;;;;;11.30;9.60;;;;;;;;;;4397901;32;418495;-81
2023/04/25 04:25:24;;;;;;;14.13;8.60;;;;;;;;;;4412573;32;318232;-81
2023/04/25 04:27:54;;;;;;;10.90;7.37;;;;;;;;;;4401555;32;317959;-81
2023/04/25 04:30:24;;;;;;;11.10;7.23;;;;;;;;;;4397648;32;318141;-82
2023/04/25 04:32:51;;;;;;;7.47;6.33;;;;;;;;;;4401030;32;338489;-80
2023/04/25 04:35:18;;;;;;;9.43;7.13;;;;;;;;;;4411497;32;317516;-81
2023/04/25 04:37:45;;;;;;;12.90;7.13;;;;;;;;;;4404095;32;317099;-80
2023/04/25 04:40:15;;;;;;;11.73;8.40;;;;;;;;;;4421495;32;318277;-81
2023/04/25 04:42:42;;;;;;;11.57;8.50;;;;;;;;;;4400914;32;318065;-80
2023/04/25 04:45:09;;;;;;;15.07;9.73;;;;;;;;;;4415056;32;318146;-80
2023/04/25 04:47:39;;;;;;;21.50;14.83;;;;;;;;;;4415708;32;318306;-82
2023/04/25 04:50:07;;;;;;;21.30;17.10;;;;;;;;;;4411292;32;319659;-80
2023/04/25 04:52:33;;;;;;;21.70;16.73;;;;;;;;;;4409283;32;319465;-80
2023/04/25 04:55:00;;;;;;;25.67;17.93;;;;;;;;;;4411989;32;319408;-80
2023/04/25 04:57:30;;;;;;;19.47;16.33;;;;;;;;;;4412133;32;318581;-80
2023/04/25 04:59:57;;;;;;;18.67;16.63;;;;;;;;;;4407908;32;419039;-81
2023/04/25 05:02:24;;;;;;;18.93;15.90;;;;;;;;;;4412046;32;319298;-81
2023/04/25 05:04:52;;;;;;;21.20;19.00;;;;;;;;;;4402004;32;318662;-79
2023/04/25 05:07:22;;;;;;;19.07;16.97;;;;;;;;;;4416230;32;319456;-79
2023/04/25 05:09:49;;;;;;;19.10;17.07;;;;;;;;;;4402829;32;318719;-81
2023/04/25 05:12:15;;;;;;;22.20;17.40;;;;;;;;;;4414452;32;319512;-81
2023/04/25 05:14:42;;;;;;;18.40;16.20;;;;;;;;;;4415885;32;322285;-81
2023/04/25 05:17:09;;;;;;;22.60;16.77;;;;;;;;;;4413965;32;318692;-81
2023/04/25 05:19:36;;;;;;;25.13;18.87;;;;;;;;;;4404179;32;319087;-81
2023/04/25 05:22:04;;;;;;;19.97;17.80;;;;;;;;;;4414508;32;319550;-80
2023/04/25 05:24:31;;;;;;;22.02;18.58;;;;;;;;;;4404154;32;319177;-82
2023/04/25 05:26:58;;;;;;;30.80;19.57;;;;;;;;;;4414673;32;318644;-80
2023/04/25 05:29:25;;;;;;;20.00;16.87;;;;;;;;;;4413863;32;319000;-83
2023/04/25 05:31:52;;;;;;;24.43;17.50;;;;;;;;;;4402956;32;319137;-81
2023/04/25 05:34:19;;;;;;;22.57;16.57;;;;;;;;;;4414128;32;319118;-81
2023/04/25 05:36:48;;;;;;;21.00;17.23;;;;;;;;;;4404358;32;319365;-81
2023/04/25 05:39:16;;;;;;;21.87;17.85;;;;;;;;;;4412321;32;319142;-79
2023/04/25 05:41:43;;;;;;;25.15;17.58;;;;;;;;;;4401980;32;318804;-78
2023/04/25 05:44:10;;;;;;;22.37;16.12;;;;;;;;;;4411861;32;318729;-80
2023/04/25 05:46:37;;;;;;;22.48;17.25;;;;;;;;;;4400888;32;318746;-80
2023/04/25 05:49:05;;;;;;;25.85;17.20;;;;;;;;;;4420960;32;319310;-80
2023/04/25 05:51:32;;;;;;;21.15;17.25;;;;;;;;;;4405156;32;319607;-81
2023/04/25 05:53:59;;;;;;;18.40;16.43;;;;;;;;;;4420188;32;318835;-79
2023/04/25 05:56:27;;;;;;;24.75;18.20;;;;;;;;;;4413721;32;329574;-80
2023/04/25 05:58:54;;;;;;;21.45;18.05;;;;;;;;;;4385453;32;319326;-82
2023/04/25 06:01:23;;;;;;;23.62;19.60;;;;;;;;;;4423753;32;318687;-83
2023/04/25 06:03:51;;;;;;;36.83;27.90;;;;;;;;;;4409267;32;358693;-82
2023/04/25 06:06:18;;;;;;;24.23;20.80;;;;;;;;;;4412292;32;319589;-83
2023/04/25 06:08:47;;;;;;;21.08;18.83;;;;;;;;;;4412523;32;318636;-85
2023/04/25 06:11:13;;;;;;;23.20;16.27;;;;;;;;;;4402479;32;319193;-83
2023/04/25 06:13:41;;;;;;;17.47;13.87;;;;;;;;;;4387309;32;319444;-82
2023/04/25 06:16:08;;;;;;;14.25;9.95;;;;;;;;;;4407883;32;319505;-83
2023/04/25 08:25:23;;;;;;;3.97;1.60;;;;;;;;;;4491859;31;20777;-81
2023/04/25 08:27:49;;;;;;;5.10;1.25;;;;;;;;;;4476807;32;20318;-82
2023/04/25 08:30:16;;;;;;;7.53;1.90;;;;;;;;;;4477109;32;20247;-81
2023/04/25 08:32:43;;;;;;;4.30;1.48;;;;;;;;;;4476833;32;20275;-80
2023/04/25 08:35:11;;;;;;;1.20;1.10;;;;;;;;;;4477042;32;20355;-80
2023/04/25 08:37:38;;;;;;;8.38;4.90;;;;;;;;;;4476857;32;20298;-82
2023/04/25 08:40:06;;;;;;;4.10;2.30;;;;;;;;;;4476201;32;20251;-81
2023/04/25 08:42:36;;;;;;;2.78;1.60;;;;;;;;;;4476241;32;20232;-80
2023/04/25 08:45:04;;;;;;;1.83;1.30;;;;;;;;;;4476549;32;20263;-83
2023/04/25 08:47:34;;;;;;;2.03;1.12;;;;;;;;;;4476227;32;20264;-80
2023/04/25 08:50:02;;;;;;;2.85;1.73;;;;;;;;;;4476485;32;20574;-81
2023/04/25 08:52:36;;;;;;;2.00;1.05;;;;;;;;;;4476864;32;20220;-82
2023/04/25 08:55:04;;;;;;;5.78;1.25;;;;;;;;;;4476702;32;20259;-82
2023/04/25 08:57:36;;;;;;;2.72;1.10;;;;;;;;;;4476441;32;20226;-82
2023/04/25 09:00:08;;;;;;;4.18;1.73;;;;;;;;;;4460232;32;20571;-82
2023/04/25 09:02:36;;;;;;;5.35;1.55;;;;;;;;;;4473573;32;20247;-80
2023/04/25 09:05:04;;;;;;;6.53;1.92;;;;;;;;;;4470555;32;20326;-83
2023/04/25 09:07:35;;;;;;;10.98;4.53;;;;;;;;;;4467630;32;20917;-79
2023/04/25 09:10:03;;;;;;;1.80;1.50;;;;;;;;;;4467862;32;20743;-81
2023/04/25 09:12:30;;;;;;;2.92;1.50;;;;;;;;;;4473634;32;20203;-81
2023/04/25 09:15:07;;;;;;;4.95;1.80;;;;;;;;;;4470633;32;20273;-79
2023/04/25 09:17:34;;;;;;;6.20;1.87;;;;;;;;;;4460247;32;20263;-79
2023/04/25 09:20:09;;;;;;;4.72;2.28;;;;;;;;;;4459315;32;20367;-82
2023/04/25 09:22:37;;;;;;;3.90;1.60;;;;;;;;;;4459651;32;20228;-80
2023/04/25 09:25:10;;;;;;;9.15;2.22;;;;;;;;;;4453596;32;20676;-79
2023/04/25 09:27:37;;;;;;;4.53;2.97;;;;;;;;;;4449325;32;20216;-82
2023/04/25 09:30:06;;;;;;;4.32;1.65;;;;;;;;;;4448780;32;20252;-82
2023/04/25 09:32:33;;;;;;;5.25;1.92;;;;;;;;;;4448850;32;20327;-83
2023/04/25 09:34:59;;;;;;;1.80;1.23;;;;;;;;;;4448810;32;20232;-86
2023/04/25 09:37:27;;;;;;;3.75;2.45;;;;;;;;;;4448815;32;20232;-83
2023/04/25 09:39:58;;;;;;;4.53;2.08;;;;;;;;;;4448968;32;20240;-82
2023/04/25 09:42:28;;;;;;;1.67;1.15;;;;;;;;;;4449392;32;20272;-81
2023/04/25 09:44:56;;;;;;;4.93;1.35;;;;;;;;;;4448847;32;20328;-83
2023/04/25 09:47:28;;;;;;;1.20;1.10;;;;;;;;;;4449174;32;20313;-81
2023/04/25 09:49:55;;;;;;;1.65;1.02;;;;;;;;;;4449803;32;20216;-82
2023/04/25 09:52:24;;;;;;;5.00;2.28;;;;;;;;;;4448615;32;20346;-81
2023/04/25 09:54:52;;;;;;;6.37;2.22;;;;;;;;;;4448898;32;20244;-82
2023/04/25 09:57:25;;;;;;;3.90;2.75;;;;;;;;;;4448851;32;20255;-80
2023/04/25 09:59:53;;;;;;;2.55;1.40;;;;;;;;;;4449250;32;20281;-82
2023/04/25 10:02:21;;;;;;;1.45;1.10;;;;;;;;;;4449227;32;20803;-80
2023/04/25 10:04:52;;;;;;;1.02;0.90;;;;;;;;;;4447816;32;20641;-81
2023/04/25 10:07:20;;;;;;;3.60;1.92;;;;;;;;;;4448666;32;20656;-81
2023/04/25 10:09:50;;;;;;;2.17;1.05;;;;;;;;;;4447805;32;20252;-81
2023/04/25 10:12:17;;;;;;;5.03;1.62;;;;;;;;;;4448045;32;20948;-83
2023/04/25 10:14:46;;;;;;;2.22;1.42;;;;;;;;;;4448246;32;20268;-83
2023/04/25 10:17:13;;;;;;;3.67;2.28;;;;;;;;;;4447699;32;20739;-80
2023/04/25 10:19:40;;;;;;;4.28;1.70;;;;;;;;;;4448728;32;20309;-81
2023/04/25 10:22:15;;;;;;;1.37;1.23;;;;;;;;;;4448373;32;20356;-80
2023/04/25 10:24:43;;;;;;;2.17;1.20;;;;;;;;;;4448450;32;20774;-84
2023/04/25 10:27:11;;;;;;;2.00;0.93;;;;;;;;;;4447355;32;20244;-83
2023/04/25 10:29:39;;;;;;;3.15;1.42;;;;;;;;;;4448883;32;20220;-80
2023/04/25 10:32:06;;;;;;;3.42;1.70;;;;;;;;;;4448670;32;20379;-83
2023/04/25 10:34:41;;;;;;;3.40;1.25;;;;;;;;;;4448224;32;20341;-81
2023/04/25 10:37:11;;;;;;;1.52;1.23;;;;;;;;;;4447096;32;20329;-82
2023/04/25 10:39:42;;;;;;;2.97;1.55;;;;;;;;;;4448134;32;20332;-81
2023/04/25 10:42:09;;;;;;;1.85;1.35;;;;;;;;;;4447995;32;20256;-80
2023/04/25 10:44:38;;;;;;;1.90;1.50;;;;;;;;;;4448279;32;20248;-81
2023/04/25 10:47:08;;;;;;;1.75;1.15;;;;;;;;;;4448463;32;20280;-83
2023/04/25 10:49:36;;;;;;;5.37;1.48;;;;;;;;;;4449508;32;20208;-82
2023/04/25 10:52:16;;;;;;;7.70;1.75;;;;;;;;;;4448861;32;20303;-82
2023/04/25 10:54:47;;;;;;;3.58;1.85;;;;;;;;;;4447933;32;20260;-81
2023/04/25 10:57:30;;;;;;;4.43;0.90;;;;;;;;;;4448218;32;20318;-82
2023/04/25 11:00:00;;;;;;;3.55;1.48;;;;;;;;;;4448365;32;20270;-83
2023/04/25 11:02:28;;;;;;;5.22;2.12;;;;;;;;;;4446980;32;20232;-80
2023/04/25 11:04:58;;;;;;;6.00;3.37;;;;;;;;;;4445271;32;20252;-79
2023/04/25 11:07:34;;;;;;;6.97;1.27;;;;;;;;;;4446019;32;20355;-78
2023/04/25 11:10:04;;;;;;;5.05;3.05;;;;;;;;;;4445621;32;20671;-78
2023/04/25 11:12:32;;;;;;;6.50;4.18;;;;;;;;;;4445788;32;20282;-79
2023/04/25 11:15:03;;;;;;;8.45;3.15;;;;;;;;;;4445559;32;20345;-81
2023/04/25 11:17:30;;;;;;;9.15;2.10;;;;;;;;;;4445656;32;20664;-79
2023/04/25 11:19:57;;;;;;;4.25;1.75;;;;;;;;;;4445506;32;20946;-79
2023/04/25 11:22:27;;;;;;;3.22;1.80;;;;;;;;;;4446384;32;20310;-77
2023/04/25 11:24:54;;;;;;;3.72;2.33;;;;;;;;;;4445800;32;20248;-77
2023/04/25 11:27:21;;;;;;;6.30;2.87;;;;;;;;;;4447606;32;20244;-79
2023/04/25 11:29:48;;;;;;;3.20;2.30;;;;;;;;;;4447567;32;20668;-77
2023/04/25 11:32:16;;;;;;;5.28;2.58;;;;;;;;;;4446838;32;20708;-79
2023/04/25 11:34:45;;;;;;;3.87;2.45;;;;;;;;;;4446106;32;20224;-79
2023/04/25 11:37:13;;;;;;;4.07;2.30;;;;;;;;;;4447337;32;20267;-80
2023/04/25 11:39:45;;;;;;;13.13;4.47;;;;;;;;;;4446940;32;20382;-78
2023/04/25 11:42:12;;;;;;;4.60;3.08;;;;;;;;;;4434118;32;20256;-79
2023/04/25 11:44:40;;;;;;;8.43;3.80;;;;;;;;;;4447869;32;20292;-79
2023/04/25 11:47:07;;;;;;;7.15;3.33;;;;;;;;;;4447294;32;20248;-78
2023/04/25 11:49:35;;;;;;;4.30;2.95;;;;;;;;;;4446882;32;20553;-79
2023/04/25 11:52:02;;;;;;;6.32;2.10;;;;;;;;;;4447607;32;20786;-77
2023/04/25 11:54:29;;;;;;;5.30;2.17;;;;;;;;;;4447154;32;20243;-79
2023/04/25 11:56:58;;;;;;;2.62;1.50;;;;;;;;;;4447389;32;20256;-79
2023/04/25 11:59:27;;;;;;;7.78;3.12;;;;;;;;;;4447303;32;20422;-78
2023/04/25 12:01:54;;;;;;;10.63;7.68;;;;;;;;;;4445548;32;20264;-78
2023/04/25 12:04:22;;;;;;;8.25;5.65;;;;;;;;;;4446807;32;20236;-78
2023/04/25 12:06:50;;;;;;;9.13;3.83;;;;;;;;;;4447493;32;20232;-79
2023/04/25 12:22:26;;;;;;;7.78;3.75;;;;;;;;;;4463106;32;20366;-77
2023/04/25 12:24:53;;;;;;;7.72;4.40;;;;;;;;;;4460938;32;20887;-78
2023/04/25 12:27:20;;;;;;;34.45;19.67;;;;;;;;;;4475447;32;20259;-77
2023/04/25 12:29:55;;;;;;;37.60;22.65;;;;;;;;;;4476419;32;20363;-77
2023/04/25 12:32:22;;;;;;;5.85;5.10;;;;;;;;;;4476753;32;20629;-76
2023/04/25 12:34:49;;;;;;;8.27;4.97;;;;;;;;;;4468795;32;20239;-76
2023/04/25 12:37:16;;;;;;;4.10;3.00;;;;;;;;;;4460640;32;20291;-76
2023/04/25 12:39:44;;;;;;;4.93;2.20;;;;;;;;;;4459131;32;20351;-76
2023/04/25 12:42:12;;;;;;;9.80;5.03;;;;;;;;;;4463790;32;20224;-80
2023/04/25 12:44:39;;;;;;;8.57;4.47;;;;;;;;;;4465149;32;20577;-78
2023/04/25 12:47:07;;;;;;;8.05;4.85;;;;;;;;;;4465706;32;20638;-79
2023/04/25 12:49:34;;;;;;;11.85;3.53;;;;;;;;;;4465140;32;20548;-80
2023/04/25 12:52:02;;;;;;;6.47;1.95;;;;;;;;;;4464978;32;20640;-79
2023/04/25 12:54:29;;;;;;;7.45;3.03;;;;;;;;;;4465107;32;20612;-80
2023/04/25 12:56:58;;;;;;;8.93;2.60;;;;;;;;;;4465058;32;20559;-80
2023/04/25 12:59:26;;;;;;;3.15;2.12;;;;;;;;;;4465153;32;20536;-78
2023/04/25 13:01:53;;;;;;;4.30;2.92;;;;;;;;;;4464754;32;20654;-77
2023/04/25 13:04:21;;;;;;;4.12;2.55;;;;;;;;;;4465039;32;20505;-77
2023/04/25 13:06:48;;;;;;;4.93;3.20;;;;;;;;;;4464785;32;20716;-79
2023/04/25 13:09:16;;;;;;;4.62;2.10;;;;;;;;;;4465545;32;20651;-79
2023/04/25 13:11:43;;;;;;;2.58;1.98;;;;;;;;;;4464752;32;20643;-79
2023/04/25 13:14:12;;;;;;;5.05;2.12;;;;;;;;;;4464840;32;20602;-78
2023/04/25 13:16:41;;;;;;;3.03;2.08;;;;;;;;;;4464633;32;20645;-78
2023/04/25 13:19:11;;;;;;;2.35;2.10;;;;;;;;;;4464785;32;20657;-77
2023/04/25 13:21:39;;;;;;;4.03;2.28;;;;;;;;;;4461700;32;20656;-78
2023/04/25 13:24:07;;;;;;;4.12;2.55;;;;;;;;;;4454288;32;20581;-78
2023/04/25 13:26:35;;;;;;;4.75;2.97;;;;;;;;;;4454176;32;20568;-79
2023/04/25 13:29:03;;;;;;;2.92;2.37;;;;;;;;;;4454006;32;20597;-78
2023/04/25 13:31:32;;;;;;;4.25;2.47;;;;;;;;;;4453923;32;20647;-77
2023/04/25 13:34:00;;;;;;;5.95;3.20;;;;;;;;;;4454127;32;20535;-77
2023/04/25 13:36:27;;;;;;;4.18;2.42;;;;;;;;;;4454016;32;20567;-80
2023/04/25 13:38:55;;;;;;;4.90;3.95;;;;;;;;;;4454033;32;20301;-79
2023/04/25 13:41:22;;;;;;;6.87;3.67;;;;;;;;;;4453874;32;20638;-79
2023/04/25 13:43:49;;;;;;;4.57;3.17;;;;;;;;;;4454089;32;20579;-79
2023/04/25 13:46:17;;;;;;;2.92;2.42;;;;;;;;;;4454030;32;20654;-80
2023/04/25 13:48:48;;;;;;;5.50;3.62;;;;;;;;;;4454068;32;20611;-79
2023/04/25 13:51:17;;;;;;;8.95;7.53;;;;;;;;;;4454318;32;20556;-79
2023/04/25 13:53:45;;;;;;;4.18;3.30;;;;;;;;;;4453791;32;20642;-78
2023/04/25 13:56:13;;;;;;;7.95;5.95;;;;;;;;;;4453891;32;20302;-77
2023/04/25 13:58:40;;;;;;;9.40;6.53;;;;;;;;;;4453773;32;20224;-78
2023/04/25 14:01:08;;;;;;;4.10;3.10;;;;;;;;;;4453831;32;20603;-77
2023/04/25 14:03:35;;;;;;;4.12;2.70;;;;;;;;;;4453776;32;20616;-79
2023/04/25 14:06:04;;;;;;;3.20;2.60;;;;;;;;;;4453721;32;20267;-80
2023/04/25 14:08:32;;;;;;;3.83;3.33;;;;;;;;;;4453507;32;20647;-79
2023/04/25 14:11:00;;;;;;;4.30;3.03;;;;;;;;;;4453028;32;20710;-78
2023/04/25 14:13:28;;;;;;;4.72;2.97;;;;;;;;;;4453532;32;20623;-80
2023/04/25 14:15:55;;;;;;;7.95;3.15;;;;;;;;;;4453606;32;20577;-77
2023/04/25 14:18:23;;;;;;;5.37;3.05;;;;;;;;;;4453389;32;20570;-77
2023/04/25 14:20:51;;;;;;;4.60;2.42;;;;;;;;;;4453152;32;20374;-80
2023/04/25 14:23:19;;;;;;;4.82;3.62;;;;;;;;;;4453581;32;20550;-77
2023/04/25 14:25:47;;;;;;;6.90;4.57;;;;;;;;;;4453503;32;20688;-78
2023/04/25 14:28:14;;;;;;;6.68;3.72;;;;;;;;;;4453368;32;20255;-80
2023/04/25 14:30:42;;;;;;;6.95;3.53;;;;;;;;;;4453258;32;20654;-79
2023/04/25 14:33:09;;;;;;;9.05;5.95;;;;;;;;;;4452564;32;20730;-80
2023/04/25 14:35:37;;;;;;;10.15;5.00;;;;;;;;;;4452947;32;20231;-79
2023/04/25 14:38:05;;;;;;;6.20;3.55;;;;;;;;;;4453319;32;20571;-80
2023/04/25 14:40:34;;;;;;;3.33;2.47;;;;;;;;;;4453228;32;20550;-81
2023/04/25 14:43:01;;;;;;;9.77;6.50;;;;;;;;;;4453228;32;20568;-77
2023/04/25 14:45:29;;;;;;;9.05;6.32;;;;;;;;;;4453070;32;20609;-81
2023/04/25 14:47:56;;;;;;;17.83;10.55;;;;;;;;;;4453177;32;20651;-79
2023/04/25 14:50:23;;;;;;;5.60;2.60;;;;;;;;;;4452922;32;20597;-77
2023/04/25 14:52:52;;;;;;;2.03;1.73;;;;;;;;;;4453100;32;20638;-78
2023/04/25 14:55:20;;;;;;;4.57;2.15;;;;;;;;;;4452939;32;20620;-80
2023/04/25 14:57:49;;;;;;;6.53;3.30;;;;;;;;;;4452977;32;20564;-79
2023/04/25 15:00:17;;;;;;;4.22;2.30;;;;;;;;;;4453000;32;20529;-80
2023/04/25 15:02:44;;;;;;;4.50;3.12;;;;;;;;;;4453154;32;20385;-78
2023/04/25 15:05:11;;;;;;;4.97;3.22;;;;;;;;;;4452913;32;20573;-78
2023/04/25 15:07:39;;;;;;;7.15;3.20;;;;;;;;;;4452783;32;20815;-79
2023/04/25 15:10:13;;;;;;;11.65;4.85;;;;;;;;;;4452642;32;20537;-76
2023/04/25 15:12:40;;;;;;;15.43;5.03;;;;;;;;;;4452485;32;20618;-78
2023/04/25 15:15:11;;;;;;;6.30;3.22;;;;;;;;;;4452829;32;20577;-78
2023/04/25 15:17:38;;;;;;;5.85;3.40;;;;;;;;;;4452741;32;20552;-80
2023/04/25 15:20:09;;;;;;;7.15;3.30;;;;;;;;;;4452734;32;20609;-76
2023/04/25 15:22:37;;;;;;;5.70;2.40;;;;;;;;;;4452417;32;20549;-78
2023/04/25 15:25:06;;;;;;;8.25;3.72;;;;;;;;;;4452702;32;20540;-76
2023/04/25 15:27:34;;;;;;;5.95;4.20;;;;;;;;;;4452559;32;20541;-78
2023/04/25 15:30:02;;;;;;;9.90;5.80;;;;;;;;;;4452524;32;20540;-79
2023/04/25 15:32:30;;;;;;;20.52;9.13;;;;;;;;;;4452378;32;20663;-79
2023/04/25 15:34:58;;;;;;;18.90;10.60;;;;;;;;;;4452458;32;20575;-77
2023/04/25 15:37:25;;;;;;;12.73;7.37;;;;;;;;;;4452335;32;20583;-79
2023/04/25 15:40:04;;;;;;;8.65;5.80;;;;;;;;;;4452428;32;20592;-78
2023/04/25 15:42:31;;;;;;;12.20;8.02;;;;;;;;;;4452291;32;20583;-79
2023/04/25 15:44:59;;;;;;;15.82;8.02;;;;;;;;;;4452000;32;20615;-80
2023/04/25 15:47:26;;;;;;;14.38;8.05;;;;;;;;;;4452229;32;20643;-81
2023/04/25 15:49:55;;;;;;;14.02;8.88;;;;;;;;;;4452280;32;20339;-82
2023/04/25 15:52:22;;;;;;;19.23;13.95;;;;;;;;;;4452001;32;20591;-79
2023/04/25 15:54:50;;;;;;;17.65;12.73;;;;;;;;;;4452356;32;20680;-81
2023/04/25 15:57:17;;;;;;;18.35;12.88;;;;;;;;;;4452211;32;20651;-82
2023/04/25 15:59:44;;;;;;;17.02;9.18;;;;;;;;;;4452196;32;20532;-80
2023/04/25 16:02:13;;;;;;;10.77;6.97;;;;;;;;;;4452100;32;20659;-79
2023/04/25 16:04:41;;;;;;;15.65;7.80;;;;;;;;;;4452250;32;20547;-82
2023/04/25 16:07:10;;;;;;;12.85;7.78;;;;;;;;;;4452087;32;20637;-82
2023/04/25 16:09:37;;;;;;;10.80;6.65;;;;;;;;;;4452092;32;20611;-82
2023/04/25 16:12:05;;;;;;;10.30;6.22;;;;;;;;;;4451966;32;20599;-80
2023/04/25 16:14:33;;;;;;;19.17;6.22;;;;;;;;;;4452075;32;20608;-79
2023/04/25 16:17:01;;;;;;;11.45;7.57;;;;;;;;;;4452066;32;20553;-83
2023/04/25 16:19:28;;;;;;;10.30;7.78;;;;;;;;;;4452146;32;20605;-83
2023/04/25 16:21:56;;;;;;;14.43;9.02;;;;;;;;;;4451830;32;20578;-85
2023/04/25 16:24:24;;;;;;;10.77;6.32;;;;;;;;;;4452121;32;20612;-82
2023/04/25 16:26:52;;;;;;;10.40;5.22;;;;;;;;;;4452132;32;20583;-82
2023/04/25 16:29:19;;;;;;;6.93;4.28;;;;;;;;;;4452119;32;20539;-83
2023/04/25 16:31:47;;;;;;;9.00;4.72;;;;;;;;;;4451730;32;20603;-82
2023/04/25 16:34:15;;;;;;;6.78;4.50;;;;;;;;;;4452706;32;20613;-80
2023/04/25 16:36:42;;;;;;;7.03;4.60;;;;;;;;;;4452058;32;20610;-82
2023/04/25 16:39:10;;;;;;;9.45;5.32;;;;;;;;;;4452674;32;20527;-80
2023/04/25 16:41:40;;;;;;;7.67;4.53;;;;;;;;;;4451935;32;20536;-80
2023/04/25 16:44:08;;;;;;;9.80;5.53;;;;;;;;;;4451929;32;20609;-82
2023/04/25 16:46:35;;;;;;;24.37;13.40;;;;;;;;;;4451687;32;20611;-80
2023/04/25 16:49:02;;;;;;;12.40;10.02;;;;;;;;;;4451868;32;20603;-82
2023/04/25 16:51:31;;;;;;;11.02;7.43;;;;;;;;;;4451808;32;20532;-82
2023/04/25 16:54:00;;;;;;;11.82;8.00;;;;;;;;;;4452468;32;20564;-81